Terminal Aerodrome Forecast
Issued by NWS

Home | Current Version | Previous Version | Text Only | Print | Product List | Glossary On
Versions: 1 2 3 4 5 6 7 8 9 10 11 12 13 14 15 16 17 18 19 20
000
FTUS44 KLZK 211000 AAA
TAFPBF
TAF AMD
KPBF 211007Z 2110/2206 04003KT 2SM BR SKC
      TEMPO 2110/2113 1/2SM FG
     FM211400 07006KT P6SM SKC
     FM212100 12006KT P6SM SKC
     FM220300 15006KT P6SM SCT015=

USA.gov is the U.S. government's official web portal to all federal, state and local government web resources and services.